Terminal Aerodrome Forecast
Issued by NWS

Home | Current Version | Previous Version | Text Only | Print | Product List | Glossary On
Versions: 1 2 3 4 5 6 7 8 9 10 11 12 13 14 15
000
FTUS42 KTBW 011212 AAA
TAFPGD
TAF AMD
KPGD 011212Z 0112/0212 00000KT 4SM BR SCT003
     FM011400 VRB04KT P6SM SCT250
     FM011800 27011KT P6SM FEW050 SCT250
     FM020200 33003KT P6SM SCT250
     FM020600 VRB02KT 6SM BR SCT005=

USA.gov is the U.S. government's official web portal to all federal, state and local government web resources and services.